Mid Labrador Coast: Past 24 Hour Conditions

 

Daniel's Harbour

12:30 PM NDT 21 October 2014
This table is a summary of hourly weather conditions for the past 24 hours.
Date / Time
(NDT)
Wind(knots) Conditions Visibility(km) Pressure(kPa) Air tempC) Relative humidity(%) Dew pointC)
21 October 2014
12:30 W 7 N/A 15 101.4 7 65 1
11:30 W 7 N/A 15 101.3 7 66 1
10:30 WNW 8 N/A 15 101.2 6 65 0
9:30 W 13 N/A 15 101.0 6 67 1
8:30 W 13 N/A 15 100.9 6 68 1
7:30 W 13 gust 18 N/A 15 100.7 6 69 1
6:30 W 13 gust 21 N/A 15 100.5 7 72 2
5:30 W 17 gust 25 N/A 15 100.4 7 74 2
4:30 W 20 gust 30 N/A 10 100.2 6 80 3
3:30 WSW 20 gust 33 N/A 8 100.0 7 81 4
2:30 WSW 25 gust 37 N/A 6 99.8 7 86 5
1:30 SW 25 gust 37 N/A 3 99.7 7 85 5
0:30 SW 27 gust 39 N/A 3 99.5 7 83 4
20 October 2014
23:30 SW 26 gust 36 N/A 8 99.4 7 80 4
22:30 SW 30 gust 44 N/A 8 99.3 7 79 3
21:30 SW 24 gust 39 N/A 5 99.3 7 80 4
20:30 SW 28 gust 40 N/A 10 99.2 7 77 3
19:30 SW 31 gust 40 N/A 8 99.1 7 80 4
18:30 SSW 31 gust 48 N/A 6 98.9 7 81 4
17:30 SSW 32 gust 43 N/A 10 98.8 7 81 4
16:30 SW 29 gust 44 N/A 6 98.7 7 82 4
15:30 SSW 35 gust 52 N/A 3 98.6 7 85 5
14:30 SSW 35 gust 44 N/A 2 98.3 N/A N/A 6
13:30 S 32 gust 46 N/A 15 98.0 10 83 7
12:30 SE 17 gust 27 N/A 15 97.9 19 69 13
 
Map of Atlantic - Newfoundland marine weather areas Southwestern Grand Banks - 44138 Banquereau - 44139 Tail of the Bank - 44140 Nickerson Bank - 44251 Northeast Burgeo Bank - 44255 Blanc-Sablon Airport Cap Whittle Chevery Natashquan Airport Heath Point Miscou Island Grand Étang Ingonish Beach North Mountain St.Paul Island J.A. Douglas McCurdy Sydney Airport Charlottetown Airport East Point North Cape Argentia Bonavista Burgeo Cape Race Corner Brook Daniel's Harbour Englee Ferolle Point La Scie Port aux Basques Rocky Harbour Sagona Island St. Anthony Airport St. John's Int'l Airport St. Lawrence Stephenville Airport Twillingate Winterland Wreckhouse Cartwright Airport Mary's Harbour Grates Cove Pool's Island Marticot Island Long Pond Îles de la Madeleine Airport
Legend: buoyBuoy land stationLand Station